Terminal Aerodrome Forecast
Issued by NWS

Home | Current Version | Previous Version | Text Only | Print | Product List | Glossary On
Versions: 1 2 3 4 5 6 7 8 9 10 11 12 13 14 15 16 17 18 19 20 21 22
958
FTUS45 KTFX 060520
TAFGTF
TAF
KGTF 060520Z 0606/0706 33008KT P6SM SCT025 BKN060
      TEMPO 0610/0612 4SM -SHSN OVC025
     FM061800 34007KT P6SM SCT025 BKN045 PROB30 0619/0623 4SM -SHSN
      OVC025=

USA.gov is the U.S. government's official web portal to all federal, state and local government web resources and services.